createdAt,value
2017-08-28T00:00:01.756Z,101275
2017-08-28T00:02:32.071Z,101280
2017-08-28T00:05:02.023Z,101275
2017-08-28T00:07:32.285Z,101276
2017-08-28T00:10:02.213Z,101269
2017-08-28T00:12:32.534Z,101275
2017-08-28T00:15:02.420Z,101282
2017-08-28T00:17:32.651Z,101277
2017-08-28T00:20:02.741Z,101265
2017-08-28T00:22:33.025Z,101273
2017-08-28T00:25:02.940Z,101278
2017-08-28T00:27:32.820Z,101279
2017-08-28T00:30:03.073Z,101278
2017-08-28T00:32:32.982Z,101287
2017-08-28T00:35:03.287Z,101269
2017-08-28T00:37:33.172Z,101280
2017-08-28T00:40:03.642Z,101271
2017-08-28T00:42:33.532Z,101279
2017-08-28T00:45:03.767Z,101269
2017-08-28T00:47:33.631Z,101260
2017-08-28T00:50:03.980Z,101263
2017-08-28T00:52:33.898Z,101263
2017-08-28T00:55:04.133Z,101267
2017-08-28T00:57:34.009Z,101265
2017-08-28T01:00:04.264Z,101271
2017-08-28T01:02:34.140Z,101262
2017-08-28T01:05:04.397Z,101271
2017-08-28T01:07:34.312Z,101259
2017-08-28T01:10:04.545Z,101264
2017-08-28T01:12:34.429Z,101255
2017-08-28T01:15:04.716Z,101255
2017-08-28T01:17:34.616Z,101251
2017-08-28T01:20:04.891Z,101251
2017-08-28T01:22:34.836Z,101254
2017-08-28T01:25:05.076Z,101256
2017-08-28T01:27:34.967Z,101257
2017-08-28T01:30:04.904Z,101261
2017-08-28T01:32:35.164Z,101257
2017-08-28T01:35:05.074Z,101254
2017-08-28T01:37:35.437Z,101259
2017-08-28T01:40:05.356Z,101256
2017-08-28T01:42:35.617Z,101253
2017-08-28T01:45:05.499Z,101252
2017-08-28T01:47:35.708Z,101258
2017-08-28T01:50:05.574Z,101239
2017-08-28T01:52:35.942Z,101269
2017-08-28T01:55:05.811Z,101262
2017-08-28T01:57:35.725Z,101269
2017-08-28T02:00:05.939Z,101274
2017-08-28T02:02:35.799Z,101267
2017-08-28T02:05:05.713Z,101264
2017-08-28T02:07:35.954Z,101269
2017-08-28T02:10:06.017Z,101268
2017-08-28T02:12:36.293Z,101275
2017-08-28T02:15:06.160Z,101277
2017-08-28T02:17:36.390Z,101264
2017-08-28T02:20:06.288Z,101264
2017-08-28T02:22:36.523Z,101263
2017-08-28T02:25:06.427Z,101258
2017-08-28T02:27:36.700Z,101260
2017-08-28T02:30:06.568Z,101252
2017-08-28T02:32:36.798Z,101252
2017-08-28T02:35:06.873Z,101254
2017-08-28T02:37:37.163Z,101254
2017-08-28T02:40:07.070Z,101255
2017-08-28T02:42:37.564Z,101255
2017-08-28T02:45:07.476Z,101249
2017-08-28T02:47:37.902Z,101250
2017-08-28T02:50:07.861Z,101244
2017-08-28T02:52:38.037Z,101249
2017-08-28T02:55:07.957Z,101243
2017-08-28T02:57:37.884Z,101245
2017-08-28T03:00:08.202Z,101255
2017-08-28T03:02:38.072Z,101255
2017-08-28T03:05:08.445Z,101261
2017-08-28T03:07:38.342Z,101257
2017-08-28T03:10:08.654Z,101253
2017-08-28T03:12:38.532Z,101256
2017-08-28T03:15:08.823Z,101254
2017-08-28T03:17:38.683Z,101263
2017-08-28T03:20:08.945Z,101265
2017-08-28T03:22:38.802Z,101261
2017-08-28T03:25:09.181Z,101265
2017-08-28T03:27:39.086Z,101263
2017-08-28T03:30:09.337Z,101261
2017-08-28T03:32:39.195Z,101273
2017-08-28T03:35:09.507Z,101264
2017-08-28T03:37:39.413Z,101267
2017-08-28T03:40:09.888Z,101265
2017-08-28T03:42:39.768Z,101271
2017-08-28T03:45:10.004Z,101267
2017-08-28T03:47:39.862Z,101271
2017-08-28T03:50:09.757Z,101267
2017-08-28T03:52:40.055Z,101262
2017-08-28T03:55:09.920Z,101261
2017-08-28T03:57:39.790Z,101259
2017-08-28T04:00:10.055Z,101261
2017-08-28T04:02:39.966Z,101262
2017-08-28T04:05:09.830Z,101268
2017-08-28T04:07:40.061Z,101267
2017-08-28T04:10:09.935Z,101273
2017-08-28T04:12:39.830Z,101265
2017-08-28T04:15:10.068Z,101277
2017-08-28T04:17:39.955Z,101280
2017-08-28T04:20:09.849Z,101266
2017-08-28T04:22:40.187Z,101287
2017-08-28T04:25:10.053Z,101277
2017-08-28T04:27:40.306Z,101276
2017-08-28T04:30:10.249Z,101268
2017-08-28T04:32:40.517Z,101265
2017-08-28T04:35:10.395Z,101265
2017-08-28T04:37:40.609Z,101266
2017-08-28T04:40:10.512Z,101270
2017-08-28T04:42:40.823Z,101279
2017-08-28T04:45:10.723Z,101273
2017-08-28T04:47:41.109Z,101280
2017-08-28T04:50:10.994Z,101283
2017-08-28T04:52:41.254Z,101283
2017-08-28T04:55:11.177Z,101288
2017-08-28T04:57:41.505Z,101282
2017-08-28T05:00:11.405Z,101294
2017-08-28T05:02:41.736Z,101298
2017-08-28T05:05:11.722Z,101303
2017-08-28T05:07:42.015Z,101291
2017-08-28T05:10:11.978Z,101305
2017-08-28T05:12:41.904Z,101306
2017-08-28T05:15:12.090Z,101305
2017-08-28T05:17:41.996Z,101307
2017-08-28T05:20:11.990Z,101313
2017-08-28T05:22:42.456Z,101309
2017-08-28T05:25:12.336Z,101305
2017-08-28T05:27:42.791Z,101297
2017-08-28T05:30:12.666Z,101268
2017-08-28T05:32:43.217Z,101288
2017-08-28T05:35:13.104Z,101296
2017-08-28T05:37:43.422Z,101306
2017-08-28T05:40:14.054Z,101302
2017-08-28T05:42:44.313Z,101307
2017-08-28T05:45:14.175Z,101307
2017-08-28T05:47:44.509Z,101311
2017-08-28T05:50:14.404Z,101315
2017-08-28T05:52:44.643Z,101311
2017-08-28T05:55:14.556Z,101320
2017-08-28T05:57:44.829Z,101317
2017-08-28T06:00:14.762Z,101318
2017-08-28T06:02:45.105Z,101312
2017-08-28T06:05:15.098Z,101312
2017-08-28T06:07:45.337Z,101310
2017-08-28T06:10:15.237Z,101311
2017-08-28T06:12:45.479Z,101313
2017-08-28T06:15:15.392Z,101310
2017-08-28T06:17:45.930Z,101319
2017-08-28T06:20:15.840Z,101306
2017-08-28T06:22:46.179Z,101314
2017-08-28T06:25:16.233Z,101310
2017-08-28T06:27:46.603Z,101306
2017-08-28T06:30:16.464Z,101299
2017-08-28T06:32:46.755Z,101302
2017-08-28T06:35:16.860Z,101311
2017-08-28T06:37:47.144Z,101319
2017-08-28T06:40:17.131Z,101322
2017-08-28T06:42:47.490Z,101323
2017-08-28T06:45:17.649Z,101324
2017-08-28T06:47:47.903Z,101320
2017-08-28T06:50:17.842Z,101332
2017-08-28T06:52:47.844Z,101331
2017-08-28T06:55:18.272Z,101333
2017-08-28T06:57:48.266Z,101279
2017-08-28T07:00:18.561Z,101337
2017-08-28T07:02:48.441Z,101332
2017-08-28T07:05:18.654Z,101325
2017-08-28T07:07:48.622Z,101336
2017-08-28T07:10:18.909Z,101328
2017-08-28T07:12:48.850Z,101340
2017-08-28T07:15:19.510Z,101337
2017-08-28T07:17:49.473Z,101334
2017-08-28T07:20:19.822Z,101338
2017-08-28T07:22:49.724Z,101337
2017-08-28T07:25:20.047Z,101341
2017-08-28T07:27:49.977Z,101340
2017-08-28T07:30:20.268Z,101332
2017-08-28T07:32:50.145Z,101331
2017-08-28T07:35:20.399Z,101335
2017-08-28T07:37:50.314Z,101336
2017-08-28T07:40:21.715Z,101342
2017-08-28T07:42:51.678Z,101346
2017-08-28T07:45:22.022Z,101345
2017-08-28T07:47:51.944Z,101347
2017-08-28T07:50:21.858Z,101344
2017-08-28T07:52:52.122Z,101342
2017-08-28T07:55:22.147Z,101339
2017-08-28T07:57:52.403Z,101337
2017-08-28T08:00:22.360Z,101333
2017-08-28T08:02:52.678Z,101337
2017-08-28T08:05:22.621Z,101341
2017-08-28T08:07:52.986Z,101342
2017-08-28T08:10:22.846Z,101332
2017-08-28T08:12:54.146Z,101335
2017-08-28T08:15:24.274Z,101347
2017-08-28T08:17:54.565Z,101343
2017-08-28T08:20:24.612Z,101345
2017-08-28T08:22:54.841Z,101342
2017-08-28T08:25:24.832Z,101340
2017-08-28T08:27:55.089Z,101339
2017-08-28T08:30:24.956Z,101322
2017-08-28T08:32:54.871Z,101339
2017-08-28T08:35:25.215Z,101340
2017-08-28T08:37:55.146Z,101343
2017-08-28T08:40:25.946Z,101344
2017-08-28T08:42:55.876Z,101272
2017-08-28T08:45:26.139Z,101342
2017-08-28T08:47:56.027Z,101341
2017-08-28T08:50:26.331Z,101341
2017-08-28T08:52:56.223Z,101338
2017-08-28T08:55:26.465Z,101333
2017-08-28T08:57:56.344Z,101342
2017-08-28T09:00:26.732Z,101349
2017-08-28T09:02:56.708Z,101339
2017-08-28T09:05:27.688Z,101342
2017-08-28T09:07:57.546Z,101347
2017-08-28T09:10:28.209Z,101344
2017-08-28T09:12:58.065Z,101344
2017-08-28T09:15:28.358Z,101351
2017-08-28T09:17:58.270Z,101349
2017-08-28T09:20:28.527Z,101357
2017-08-28T09:22:58.563Z,101347
2017-08-28T09:25:29.785Z,101339
2017-08-28T09:27:59.845Z,101345
2017-08-28T09:30:30.133Z,101350
2017-08-28T09:33:00.014Z,101345
2017-08-28T09:35:30.303Z,101341
2017-08-28T09:38:00.353Z,101346
2017-08-28T09:40:30.573Z,101337
2017-08-28T09:55:56.322Z,101344
2017-08-28T09:58:27.289Z,101336
2017-08-28T10:00:57.745Z,101336
2017-08-28T10:03:28.642Z,101332
2017-08-28T10:05:59.294Z,101330
2017-08-28T10:08:29.295Z,101335
2017-08-28T10:10:59.763Z,101333
2017-08-28T10:13:29.941Z,101336
2017-08-28T10:16:00.375Z,101326
2017-08-28T10:18:30.436Z,101343
2017-08-28T10:21:00.692Z,101337
2017-08-28T10:23:30.617Z,101334
2017-08-28T10:26:00.854Z,101329
2017-08-28T10:28:30.764Z,101335
2017-08-28T10:31:01.085Z,101331
2017-08-28T10:33:31.034Z,101329
2017-08-28T10:36:01.394Z,101327
2017-08-28T10:38:31.382Z,101325
2017-08-28T10:41:01.695Z,101324
2017-08-28T10:43:31.621Z,101331
2017-08-28T10:46:03.728Z,101321
2017-08-28T10:48:33.622Z,101331
2017-08-28T10:51:03.877Z,101328
2017-08-28T10:53:33.800Z,101324
2017-08-28T10:56:04.990Z,101328
2017-08-28T10:58:34.882Z,101326
2017-08-28T11:01:04.798Z,101326
2017-08-28T11:03:35.002Z,101327
2017-08-28T11:06:05.824Z,101321
2017-08-28T11:08:36.250Z,101344
2017-08-28T11:11:06.140Z,101320
2017-08-28T11:13:36.461Z,101326
2017-08-28T11:16:06.353Z,101324
2017-08-28T11:18:36.638Z,101320
2017-08-28T11:21:06.557Z,101320
2017-08-28T11:23:36.815Z,101321
2017-08-28T11:26:06.757Z,101315
2017-08-28T11:28:37.075Z,101320
2017-08-28T11:31:06.962Z,101321
2017-08-28T11:33:36.847Z,101317
2017-08-28T11:36:07.075Z,101308
2017-08-28T11:38:36.955Z,101314
2017-08-28T11:41:06.857Z,101311
2017-08-28T11:43:37.089Z,101308
2017-08-28T11:46:06.986Z,101307
2017-08-28T11:48:36.904Z,101317
2017-08-28T11:51:07.161Z,101306
2017-08-28T11:53:37.116Z,101304
2017-08-28T11:56:07.422Z,101311
2017-08-28T11:58:37.460Z,101307
2017-08-28T12:01:07.798Z,101295
2017-08-28T12:03:37.699Z,101306
2017-08-28T12:06:07.943Z,101296
2017-08-28T12:08:37.859Z,101306
2017-08-28T12:11:08.290Z,101302
2017-08-28T12:13:38.230Z,101304
2017-08-28T12:16:08.929Z,101304
2017-08-28T12:18:38.902Z,101302
2017-08-28T12:21:09.382Z,101297
2017-08-28T12:23:39.565Z,101307
2017-08-28T12:26:10.532Z,101306
2017-08-28T12:28:40.464Z,101299
2017-08-28T12:31:10.815Z,101285
2017-08-28T12:33:42.497Z,101295
2017-08-28T12:36:12.975Z,101291
2017-08-28T12:38:42.858Z,101288
2017-08-28T12:41:13.812Z,101290
2017-08-28T12:43:43.768Z,101290
2017-08-28T12:46:14.061Z,101287
2017-08-28T12:48:45.721Z,101288
2017-08-28T12:51:16.266Z,101275
2017-08-28T12:53:48.234Z,101275
2017-08-28T12:56:18.893Z,101160
2017-08-28T12:58:48.923Z,101271
2017-08-28T13:01:19.301Z,101270
2017-08-28T13:03:50.363Z,101275
2017-08-28T13:06:20.686Z,101272
2017-08-28T13:08:50.798Z,101267
2017-08-28T13:11:21.222Z,101269
2017-08-28T13:13:51.116Z,101267
2017-08-28T13:16:21.385Z,101261
2017-08-28T13:18:51.264Z,101276
2017-08-28T13:21:21.705Z,101268
2017-08-28T13:23:52.064Z,101272
2017-08-28T13:26:22.490Z,101260
2017-08-28T13:28:52.425Z,101262
2017-08-28T13:31:22.991Z,101250
2017-08-28T13:33:52.894Z,101257
2017-08-28T13:36:23.141Z,101248
2017-08-28T13:38:53.826Z,101247
2017-08-28T13:41:24.098Z,101247
2017-08-28T13:43:54.043Z,101249
2017-08-28T13:46:24.495Z,101242
2017-08-28T13:48:54.485Z,101242
2017-08-28T13:51:24.892Z,101243
2017-08-28T13:53:54.874Z,101253
2017-08-28T13:56:25.262Z,101252
2017-08-28T13:58:55.163Z,101249
2017-08-28T14:01:25.653Z,101246
2017-08-28T14:03:55.575Z,101236
2017-08-28T14:06:25.939Z,101229
2017-08-28T14:08:55.881Z,101230
2017-08-28T14:11:26.199Z,101230
2017-08-28T14:13:56.092Z,101232
2017-08-28T14:16:26.402Z,101235
2017-08-28T14:18:56.404Z,101241
2017-08-28T14:21:26.854Z,101233
2017-08-28T14:23:56.722Z,101232
2017-08-28T14:26:27.064Z,101233
2017-08-28T14:28:57.000Z,101227
2017-08-28T14:31:26.910Z,101228
2017-08-28T14:33:57.286Z,101224
2017-08-28T14:36:27.158Z,101222
2017-08-28T14:38:57.388Z,101229
2017-08-28T14:41:27.299Z,101218
2017-08-28T14:43:57.545Z,101223
2017-08-28T14:46:27.443Z,101213
2017-08-28T14:48:57.679Z,101210
2017-08-28T14:51:27.563Z,101216
2017-08-28T14:53:57.863Z,101218
2017-08-28T14:56:27.778Z,101212
2017-08-28T14:58:58.039Z,101211
2017-08-28T15:01:27.939Z,101203
2017-08-28T15:03:57.849Z,101206
2017-08-28T15:06:28.252Z,101206
2017-08-28T15:08:58.295Z,101200
2017-08-28T15:11:28.573Z,101199
2017-08-28T15:13:58.472Z,101198
2017-08-28T15:16:29.979Z,101203
2017-08-28T15:18:59.870Z,101196
2017-08-28T15:21:29.791Z,101195
2017-08-28T15:24:00.700Z,101190
2017-08-28T15:26:30.614Z,101184
2017-08-28T15:29:00.859Z,101183
2017-08-28T15:31:30.755Z,101181
2017-08-28T15:34:00.981Z,101170
2017-08-28T15:36:30.886Z,101171
2017-08-28T15:39:00.802Z,101172
2017-08-28T15:41:31.192Z,101171
2017-08-28T15:44:01.396Z,101174
2017-08-28T15:46:31.821Z,101169
2017-08-28T15:49:01.768Z,101164
2017-08-28T15:51:32.035Z,101163
2017-08-28T15:54:02.632Z,101166
2017-08-28T15:56:32.959Z,101164
2017-08-28T15:59:02.890Z,101164
2017-08-28T16:01:33.008Z,101158
2017-08-28T16:04:03.606Z,101171
2017-08-28T16:06:33.653Z,101171
2017-08-28T16:09:05.977Z,101164
2017-08-28T16:11:35.979Z,101169
2017-08-28T16:14:06.374Z,101161
2017-08-28T16:16:36.528Z,101160
2017-08-28T16:19:07.038Z,101162
2017-08-28T16:21:37.074Z,101162
2017-08-28T16:24:07.315Z,101159
2017-08-28T16:26:37.216Z,101160
2017-08-28T16:29:07.680Z,101164
2017-08-28T16:31:37.688Z,101159
2017-08-28T16:34:08.012Z,101156
2017-08-28T16:36:38.038Z,101161
2017-08-28T16:39:08.301Z,101163
2017-08-28T16:41:38.241Z,101169
2017-08-28T16:44:08.639Z,101162
2017-08-28T16:46:38.679Z,101151
2017-08-28T16:49:09.868Z,101116
2017-08-28T16:51:39.811Z,101158
2017-08-28T16:54:10.133Z,101162
2017-08-28T16:56:40.014Z,101156
2017-08-28T16:59:10.620Z,101151
2017-08-28T17:01:40.628Z,101154
2017-08-28T17:04:10.884Z,101157
2017-08-28T17:06:40.844Z,101151
2017-08-28T17:09:11.137Z,101144
2017-08-28T17:11:41.150Z,101148
2017-08-28T17:14:11.465Z,101147
2017-08-28T17:16:41.349Z,101146
2017-08-28T17:19:11.654Z,101151
2017-08-28T17:21:41.736Z,101141
2017-08-28T17:24:12.055Z,101156
2017-08-28T17:26:42.316Z,101154
2017-08-28T17:29:12.625Z,101154
2017-08-28T17:31:42.601Z,101160
2017-08-28T17:34:13.137Z,101156
2017-08-28T17:36:43.498Z,101159
2017-08-28T17:39:13.819Z,101155
2017-08-28T17:41:43.723Z,101162
2017-08-28T17:44:14.275Z,101158
2017-08-28T17:46:44.174Z,101159
2017-08-28T17:49:14.547Z,101158
2017-08-28T17:51:44.584Z,101154
2017-08-28T17:54:14.953Z,101162
2017-08-28T17:56:47.045Z,101157
2017-08-28T17:59:17.542Z,101157
2017-08-28T18:01:47.592Z,101159
2017-08-28T18:04:17.944Z,101162
2017-08-28T18:06:48.100Z,101161
2017-08-28T18:09:18.557Z,101163
2017-08-28T18:11:48.546Z,101144
2017-08-28T18:14:19.069Z,101157
2017-08-28T18:16:48.979Z,101158
2017-08-28T18:19:19.421Z,101154
2017-08-28T18:21:49.486Z,101154
2017-08-28T18:24:19.831Z,101161
2017-08-28T18:26:49.788Z,101155
2017-08-28T18:29:20.275Z,101164
2017-08-28T18:31:50.346Z,101159
2017-08-28T18:34:20.648Z,101163
2017-08-28T18:36:50.589Z,101195
2017-08-28T18:39:20.960Z,101164
2017-08-28T18:41:50.865Z,101167
2017-08-28T18:44:21.342Z,101173
2017-08-28T18:46:51.361Z,101167
2017-08-28T18:49:21.805Z,101178
2017-08-28T18:51:51.861Z,101180
2017-08-28T18:54:22.193Z,101182
2017-08-28T18:56:52.282Z,101182
2017-08-28T18:59:22.819Z,101177
2017-08-28T19:01:52.762Z,101176
2017-08-28T19:04:23.081Z,101156
2017-08-28T19:06:53.027Z,101182
2017-08-28T19:09:23.481Z,101185
2017-08-28T19:11:53.579Z,101190
2017-08-28T19:14:23.958Z,101180
2017-08-28T19:16:54.087Z,101195
2017-08-28T19:19:24.372Z,101191
2017-08-28T19:21:54.318Z,101196
2017-08-28T19:24:24.867Z,101190
2017-08-28T19:26:54.878Z,101188
2017-08-28T19:29:25.232Z,101193
2017-08-28T19:31:55.206Z,101194
2017-08-28T19:34:35.040Z,101192
2017-08-28T19:37:04.953Z,101198
2017-08-28T19:39:35.236Z,101190
2017-08-28T19:42:05.256Z,101202
2017-08-28T19:44:37.166Z,101196
2017-08-28T19:47:07.229Z,101185
2017-08-28T19:49:37.636Z,101191
2017-08-28T19:52:07.607Z,101195
2017-08-28T19:54:38.264Z,101192
2017-08-28T19:57:08.281Z,101193
2017-08-28T19:59:38.560Z,101189
2017-08-28T20:02:09.431Z,101191
2017-08-28T20:04:39.825Z,101196
2017-08-28T20:07:09.806Z,101186
2017-08-28T20:09:40.817Z,101187
2017-08-28T20:12:10.800Z,101187
2017-08-28T20:14:41.213Z,101195
2017-08-28T20:17:11.190Z,101114
2017-08-28T20:19:44.470Z,101185
2017-08-28T20:35:09.881Z,101191
2017-08-28T20:37:39.929Z,101177
2017-08-28T20:40:10.466Z,101188
2017-08-28T20:42:40.367Z,101188
2017-08-28T20:45:10.856Z,101096
2017-08-28T20:47:40.770Z,101195
2017-08-28T20:50:12.867Z,101201
2017-08-28T20:52:42.879Z,101186
2017-08-28T20:55:13.173Z,101187
2017-08-28T20:57:43.123Z,101189
2017-08-28T21:00:13.542Z,101190
2017-08-28T21:02:43.637Z,101187
2017-08-28T21:05:14.004Z,101187
2017-08-28T21:07:43.948Z,101184
2017-08-28T21:10:13.885Z,101189
2017-08-28T21:12:44.236Z,101192
2017-08-28T21:15:14.129Z,101181
2017-08-28T21:17:44.478Z,101174
2017-08-28T21:20:14.553Z,101172
2017-08-28T21:22:44.871Z,101168
2017-08-28T21:25:14.807Z,101161
2017-08-28T21:27:45.064Z,101169
2017-08-28T21:30:14.962Z,101174
2017-08-28T21:32:44.930Z,101170
2017-08-28T21:35:15.369Z,101179
2017-08-28T21:37:45.242Z,101180
2017-08-28T21:40:15.815Z,101179
2017-08-28T21:42:45.730Z,101172
2017-08-28T21:45:15.998Z,101173
2017-08-28T21:47:45.912Z,101170
2017-08-28T21:50:15.879Z,101174
2017-08-28T21:52:46.113Z,101173
2017-08-28T21:55:16.008Z,101170
2017-08-28T21:57:46.255Z,101169
2017-08-28T22:00:16.199Z,101162
2017-08-28T22:02:46.448Z,101164
2017-08-28T22:05:16.325Z,101162
2017-08-28T22:07:46.736Z,101155
2017-08-28T22:10:16.616Z,101156
2017-08-28T22:12:46.872Z,101148
2017-08-28T22:15:16.886Z,101152
2017-08-28T22:17:47.306Z,101142
2017-08-28T22:20:17.186Z,101139
2017-08-28T22:22:47.416Z,101149
2017-08-28T22:25:17.340Z,101139
2017-08-28T22:27:47.661Z,101146
2017-08-28T22:30:17.562Z,101149
2017-08-28T22:32:47.797Z,101138
2017-08-28T22:35:17.689Z,101140
2017-08-28T22:37:48.039Z,101139
2017-08-28T22:40:17.944Z,101131
2017-08-28T22:42:47.867Z,101137
2017-08-28T22:45:18.216Z,101138
2017-08-28T22:47:48.118Z,101123
2017-08-28T22:50:18.434Z,101130
2017-08-28T22:52:48.331Z,101134
2017-08-28T22:55:18.567Z,101127
2017-08-28T22:57:48.611Z,101106
2017-08-28T23:00:18.900Z,101115
2017-08-28T23:02:48.811Z,101121
2017-08-28T23:05:19.046Z,101118
2017-08-28T23:07:49.811Z,101120
2017-08-28T23:10:20.051Z,101108
2017-08-28T23:12:49.965Z,101114
2017-08-28T23:15:19.831Z,101113
2017-08-28T23:17:50.155Z,101108
2017-08-28T23:20:20.033Z,101099
2017-08-28T23:22:50.519Z,101111
2017-08-28T23:25:20.451Z,101109
2017-08-28T23:27:50.837Z,101105
2017-08-28T23:30:20.766Z,101114
2017-08-28T23:32:52.073Z,101109
2017-08-28T23:35:21.972Z,101104
2017-08-28T23:37:51.893Z,101102
2017-08-28T23:40:22.167Z,101103
2017-08-28T23:42:52.101Z,101103
2017-08-28T23:45:22.337Z,101108
2017-08-28T23:47:52.258Z,101102
2017-08-28T23:50:22.505Z,101108
2017-08-28T23:52:52.470Z,101106
2017-08-28T23:55:22.837Z,101102
2017-08-28T23:57:52.777Z,101083
